Time;durP1;ratioP1;P1;durP2;ratioP2;P2;SDS_P1;SDS_P2;PMS_P1;PMS_P2;Temp;Humidity;BMP_temperature;BMP_pressure;BME280_temperature;BME280_humidity;BME280_pressure;Samples;Min_cycle;Max_cycle;Signal;HPM_P1;HPM_P2
2022/12/07 00:01:22;;;;;;;;;53.75;40.75;;;;;7.20;59.90;101533.88;5070733;27;45379;-43
2022/12/07 00:03:50;;;;;;;;;55.50;39.75;;;;;7.16;60.02;101536.50;5066524;28;45368;-42
2022/12/07 00:06:16;;;;;;;;;57.75;42.00;;;;;7.14;60.17;101541.72;5073482;28;46196;-43
2022/12/07 00:08:42;;;;;;;;;59.25;45.00;;;;;7.13;60.04;101539.09;5074177;27;45460;-43
2022/12/07 00:11:10;;;;;;;;;56.00;43.75;;;;;7.10;60.13;101531.28;5074872;28;45426;-43
2022/12/07 00:13:36;;;;;;;;;55.00;41.75;;;;;7.09;60.11;101533.03;5077181;28;46287;-44
2022/12/07 00:16:04;;;;;;;;;56.50;40.50;;;;;7.10;59.99;101532.19;5064727;28;46670;-43
2022/12/07 00:18:29;;;;;;;;;53.50;40.50;;;;;7.09;60.03;101525.22;5073517;28;45420;-43
2022/12/07 00:21:07;;;;;;;;;52.50;40.25;;;;;7.04;60.08;101535.63;5073747;27;45323;-45
2022/12/07 00:23:33;;;;;;;;;59.75;42.00;;;;;7.03;60.12;101530.44;5078039;27;46332;-43
2022/12/07 00:26:38;;;;;;;;;58.25;41.50;;;;;7.01;60.06;101532.16;5074557;27;45308;-43
2022/12/07 00:29:06;;;;;;;;;58.75;43.75;;;;;6.98;60.14;101535.63;5074872;27;46066;-43
2022/12/07 00:31:35;;;;;;;;;58.25;40.25;;;;;6.96;60.03;101528.72;5058539;28;45529;-45
2022/12/07 00:34:01;;;;;;;;;56.50;40.75;;;;;6.94;60.23;101523.50;5063243;28;45400;-43
2022/12/07 00:36:27;;;;;;;;;51.75;39.00;;;;;6.94;60.25;101526.09;5068155;28;47393;-46
2022/12/07 00:38:54;;;;;;;;;57.00;41.00;;;;;6.92;60.15;101524.34;5075805;28;45388;-49
2022/12/07 00:41:21;;;;;;;;;53.25;41.25;;;;;6.90;60.33;101526.09;5072560;28;45283;-48
2022/12/07 00:43:48;;;;;;;;;60.25;41.25;;;;;6.87;60.26;101515.66;5078434;27;45462;-44
2022/12/07 00:46:14;;;;;;;;;56.50;39.75;;;;;6.86;60.36;101517.41;5077394;28;47154;-45
2022/12/07 00:48:40;;;;;;;;;57.50;38.75;;;;;6.87;60.21;101526.06;5074599;28;45293;-45
2022/12/07 00:51:06;;;;;;;;;43.75;39.50;;;;;6.87;60.43;101518.25;5076487;27;45349;-47
2022/12/07 00:53:34;;;;;;;;;57.25;41.25;;;;;6.89;60.41;101516.53;5073416;28;45502;-45
2022/12/07 00:56:39;;;;;;;;;60.75;43.75;;;;;6.91;60.33;101518.28;5071002;28;46221;-45
2022/12/07 00:59:05;;;;;;;;;56.00;44.75;;;;;6.89;60.22;101516.53;5043819;28;45420;-44
2022/12/07 01:01:33;;;;;;;;;62.00;44.25;;;;;6.90;60.20;101511.31;5070495;27;45498;-47
2022/12/07 01:04:01;;;;;;;;;56.25;45.25;;;;;6.90;60.24;101513.94;5075501;27;45513;-44
2022/12/07 01:06:26;;;;;;;;;58.50;42.25;;;;;6.91;60.40;101504.41;5078940;27;47340;-45
2022/12/07 01:08:52;;;;;;;;;59.00;41.00;;;;;6.91;60.42;101502.66;5067585;28;45400;-47
2022/12/07 01:11:20;;;;;;;;;58.00;42.00;;;;;6.91;60.41;101500.06;5058079;28;45549;-45
2022/12/07 01:13:45;;;;;;;;;50.00;38.00;;;;;6.90;60.32;101500.06;5077072;27;45406;-45
2022/12/07 01:16:13;;;;;;;;;59.75;44.50;;;;;6.91;60.31;101499.22;5089718;27;45457;-45
2022/12/07 01:18:38;;;;;;;;;59.75;43.00;;;;;6.90;60.54;101494.84;5093761;27;45472;-44
2022/12/07 01:21:20;;;;;;;;;63.00;46.00;;;;;6.91;60.40;101497.47;5072388;28;45310;-47
2022/12/07 01:23:46;;;;;;;;;57.00;40.50;;;;;6.90;60.39;101503.53;5060539;27;45245;-46
2022/12/07 01:26:14;;;;;;;;;52.75;37.25;;;;;6.92;60.37;101500.94;5070869;28;46198;-44
2022/12/07 01:28:40;;;;;;;;;53.50;41.50;;;;;6.94;60.21;101501.78;5072047;27;45922;-43
2022/12/07 01:31:17;;;;;;;;;53.25;35.75;;;;;6.92;60.34;101496.56;5061321;28;45503;-43
2022/12/07 01:33:44;;;;;;;;;52.75;39.75;;;;;6.91;60.54;101494.00;5066282;28;45384;-44
2022/12/07 01:36:14;;;;;;;;;59.75;40.25;;;;;6.90;60.42;101497.47;5075408;28;46360;-45
2022/12/07 01:38:40;;;;;;;;;52.25;42.50;;;;;6.90;60.41;101487.06;5090663;27;45495;-44
2022/12/07 01:41:05;;;;;;;;;54.25;40.00;;;;;6.87;60.47;101487.03;5076202;28;45593;-43
2022/12/07 01:43:33;;;;;;;;;58.50;41.25;;;;;6.87;60.30;101492.25;5069894;28;48091;-42
2022/12/07 01:45:58;;;;;;;;;58.25;41.75;;;;;6.86;60.41;101488.78;5071019;27;45361;-43
2022/12/07 01:48:30;;;;;;;;;60.50;45.25;;;;;6.83;60.21;101486.19;5068542;28;45298;-43
2022/12/07 01:50:56;;;;;;;;;51.00;39.75;;;;;6.80;60.11;101488.81;5061471;28;45523;-44
2022/12/07 01:53:25;;;;;;;;;56.25;41.50;;;;;6.75;59.98;101493.97;5075912;28;57492;-42
2022/12/07 01:55:52;;;;;;;;;47.75;38.75;;;;;6.70;59.91;101493.09;5071441;28;46205;-44
2022/12/07 01:58:17;;;;;;;;;54.00;39.25;;;;;6.63;59.99;101484.41;5067768;28;45419;-43
2022/12/07 02:00:43;;;;;;;;;55.25;41.75;;;;;6.62;60.13;101494.81;5089951;27;45826;-44
2022/12/07 02:03:17;;;;;;;;;53.75;40.50;;;;;6.55;60.09;101488.75;5071018;27;67358;-44
2022/12/07 02:05:43;;;;;;;;;56.50;40.25;;;;;6.52;59.93;101490.50;5062634;28;46220;-43
2022/12/07 02:08:11;;;;;;;;;51.25;38.25;;;;;6.46;59.87;101488.72;5089492;27;45657;-44
2022/12/07 02:10:36;;;;;;;;;49.25;36.75;;;;;6.41;60.13;101486.13;5071755;27;45256;-44
2022/12/07 02:13:03;;;;;;;;;53.50;40.25;;;;;6.41;60.05;101485.25;5070060;27;45559;-44
2022/12/07 02:15:54;;;;;;;;;53.00;35.00;;;;;6.39;60.32;101487.88;5068445;28;46023;-44
2022/12/07 02:18:35;;;;;;;;;49.50;40.00;;;;;6.39;60.36;101489.56;5057106;27;45531;-43
2022/12/07 02:21:09;;;;;;;;;54.25;39.00;;;;;6.39;60.10;101494.78;5067077;27;45375;-43
2022/12/07 02:23:41;;;;;;;;;55.75;38.75;;;;;6.39;60.25;101494.78;5071698;28;45326;-43
2022/12/07 02:26:16;;;;;;;;;52.75;39.50;;;;;6.39;60.30;101490.47;5077653;28;46461;-44
2022/12/07 02:29:02;;;;;;;;;48.50;35.00;;;;;6.38;60.28;101485.25;5078070;28;45650;-43
2022/12/07 02:31:30;;;;;;;;;41.75;31.75;;;;;6.36;60.17;101482.66;5069405;27;45533;-45
2022/12/07 02:34:07;;;;;;;;;41.25;29.75;;;;;6.37;60.47;101479.16;5087690;27;45451;-43
2022/12/07 02:36:39;;;;;;;;;46.75;37.00;;;;;6.38;60.32;101478.31;5066528;28;45338;-43
2022/12/07 02:39:15;;;;;;;;;33.50;26.00;;;;;6.36;60.22;101485.25;5075527;28;45398;-43
2022/12/07 02:41:44;;;;;;;;;47.25;31.25;;;;;6.36;60.38;101485.25;5084973;27;45382;-44
2022/12/07 02:44:19;;;;;;;;;39.00;33.25;;;;;6.36;60.59;101480.06;5065343;28;46111;-44
2022/12/07 02:46:49;;;;;;;;;40.50;31.75;;;;;6.35;60.53;101480.91;5090629;27;45404;-43
2022/12/07 02:49:15;;;;;;;;;46.75;37.50;;;;;6.35;60.29;101486.09;5087764;27;45869;-43
2022/12/07 02:51:44;;;;;;;;;42.50;35.75;;;;;6.33;60.37;101480.03;5073981;28;58640;-43
2022/12/07 02:54:16;;;;;;;;;47.50;35.25;;;;;6.35;60.46;101482.66;5077516;27;45534;-43
2022/12/07 02:56:44;;;;;;;;;49.25;33.00;;;;;6.35;60.25;101477.44;5074810;28;45366;-43
2022/12/07 02:59:31;;;;;;;;;42.75;33.00;;;;;6.32;60.41;101470.53;5072658;27;45759;-43
2022/12/07 03:02:30;;;;;;;;;44.00;30.75;;;;;6.34;60.36;101475.69;5065322;28;45324;-43
2022/12/07 03:05:17;;;;;;;;;47.25;37.75;;;;;6.36;60.46;101477.44;5061080;28;45610;-43
2022/12/07 03:08:11;;;;;;;;;45.75;36.25;;;;;6.39;60.40;101472.25;5070907;28;45459;-43
2022/12/07 03:10:54;;;;;;;;;47.75;33.50;;;;;6.43;60.24;101466.19;5077118;27;45838;-43
2022/12/07 03:13:54;;;;;;;;;38.25;33.00;;;;;6.46;60.35;101463.63;5081588;27;45468;-44
2022/12/07 03:16:22;;;;;;;;;39.75;31.50;;;;;6.49;60.29;101462.72;5066465;28;45458;-44
2022/12/07 03:18:58;;;;;;;;;41.75;36.00;;;;;6.51;60.28;101465.34;5077309;28;46560;-44
2022/12/07 03:21:27;;;;;;;;;39.75;29.00;;;;;6.51;60.31;101468.78;5069892;28;45194;-45
2022/12/07 03:23:56;;;;;;;;;37.00;29.25;;;;;6.53;60.19;101461.00;5075157;28;45308;-43
2022/12/07 03:26:25;;;;;;;;;40.50;27.50;;;;;6.53;60.02;101461.88;5079432;28;46145;-43
2022/12/07 03:28:55;;;;;;;;;40.50;33.00;;;;;6.52;59.83;101461.88;5069142;28;46895;-44
2022/12/07 03:31:28;;;;;;;;;36.50;27.25;;;;;6.48;59.95;101461.03;5075999;27;45880;-44
2022/12/07 03:34:03;;;;;;;;;32.00;27.75;;;;;6.47;59.75;101460.13;5070221;28;45582;-44
2022/12/07 03:36:48;;;;;;;;;44.50;29.75;;;;;6.44;59.72;101452.31;5087663;27;45508;-46
2022/12/07 03:39:20;;;;;;;;;27.50;22.50;;;;;6.40;59.71;101449.72;5069954;28;46703;-47
2022/12/07 03:41:45;;;;;;;;;34.25;27.00;;;;;6.34;59.84;101450.59;5077741;28;45290;-45
2022/12/07 03:44:11;;;;;;;;;33.50;27.25;;;;;6.28;59.97;101440.16;5068470;28;45556;-44
2022/12/07 03:47:01;;;;;;;;;38.25;33.00;;;;;6.26;59.55;101454.88;5088169;27;61587;-47
2022/12/07 03:49:42;;;;;;;;;37.00;32.25;;;;;6.23;59.73;101454.88;5076190;28;45469;-43
2022/12/07 03:52:27;;;;;;;;;44.00;30.00;;;;;6.17;59.56;101447.06;5067526;28;45194;-47
2022/12/07 03:55:06;;;;;;;;;40.25;32.25;;;;;6.15;59.62;101448.81;5068258;27;45314;-45
2022/12/07 03:57:33;;;;;;;;;35.75;30.00;;;;;6.11;59.72;101437.53;5077948;28;45486;-48
2022/12/07 04:00:00;;;;;;;;;39.75;31.75;;;;;6.07;59.89;101443.56;5076094;28;46109;-44
2022/12/07 04:02:27;;;;;;;;;32.25;25.75;;;;;6.05;59.82;101440.97;5086449;27;45443;-45
2022/12/07 04:04:52;;;;;;;;;41.00;31.25;;;;;6.02;60.08;101443.56;5078777;28;45554;-48
2022/12/07 04:07:18;;;;;;;;;37.25;30.00;;;;;6.01;60.04;101446.16;5066351;28;65680;-46
2022/12/07 04:09:43;;;;;;;;;35.50;26.75;;;;;5.98;59.92;101443.56;5073966;28;45239;-46
2022/12/07 04:12:08;;;;;;;;;35.75;26.00;;;;;5.98;60.02;101441.81;5072178;27;58024;-47
2022/12/07 04:14:34;;;;;;;;;36.25;30.75;;;;;5.96;60.17;101446.13;5085101;27;59689;-46
2022/12/07 04:16:59;;;;;;;;;32.25;24.00;;;;;5.97;60.28;101447.88;5068861;27;45265;-45
2022/12/07 04:19:30;;;;;;;;;36.00;27.75;;;;;5.96;60.47;101445.28;5061686;28;69306;-45
2022/12/07 04:21:56;;;;;;;;;37.50;28.00;;;;;5.96;60.30;101443.53;5075076;28;45464;-47
2022/12/07 04:24:22;;;;;;;;;35.00;26.75;;;;;5.97;60.47;101444.44;5062088;28;45472;-44
2022/12/07 04:26:47;;;;;;;;;39.00;26.75;;;;;5.95;60.47;101439.19;5077424;28;45239;-45
2022/12/07 04:29:13;;;;;;;;;27.75;22.50;;;;;5.94;60.38;101445.22;5075109;28;46797;-45
2022/12/07 04:31:39;;;;;;;;;39.00;29.50;;;;;5.94;60.49;101449.56;5075003;28;45885;-45
2022/12/07 04:34:04;;;;;;;;;30.75;27.00;;;;;5.95;60.29;101451.28;5073974;28;45399;-45
2022/12/07 04:36:30;;;;;;;;;33.25;25.25;;;;;5.92;60.37;101435.72;5064789;27;45427;-47
2022/12/07 04:38:56;;;;;;;;;28.50;26.50;;;;;5.89;60.55;101453.00;5063079;28;46165;-46
2022/12/07 04:41:28;;;;;;;;;26.00;24.50;;;;;5.82;60.66;101435.66;5076301;28;45213;-48
2022/12/07 04:43:59;;;;;;;;;30.25;19.00;;;;;5.79;60.62;101446.06;5076779;27;45458;-46
2022/12/07 04:46:26;;;;;;;;;37.25;23.75;;;;;5.79;60.83;101446.06;5075659;28;45608;-44
2022/12/07 04:48:52;;;;;;;;;34.50;21.75;;;;;5.79;60.93;101439.97;5074840;27;45409;-45
2022/12/07 04:51:29;;;;;;;;;21.75;15.25;;;;;5.80;60.62;101436.53;5062517;28;45320;-44
2022/12/07 04:53:55;;;;;;;;;29.75;23.50;;;;;5.81;60.70;101433.09;5065425;27;45452;-45
2022/12/07 04:56:20;;;;;;;;;28.00;21.00;;;;;5.83;61.04;101437.41;5072944;27;45497;-44
2022/12/07 04:58:47;;;;;;;;;34.50;22.25;;;;;5.86;60.94;101428.75;5079595;28;45984;-48
2022/12/07 05:01:14;;;;;;;;;26.75;18.75;;;;;5.90;60.74;101438.31;5074704;27;45410;-46
2022/12/07 05:03:39;;;;;;;;;21.00;17.50;;;;;5.90;60.91;101441.75;5072095;28;45442;-44
2022/12/07 05:06:06;;;;;;;;;24.00;21.50;;;;;5.93;60.98;101438.28;5065936;27;56733;-45
2022/12/07 05:08:34;;;;;;;;;34.25;23.50;;;;;5.94;60.85;101450.44;5069790;27;45416;-43
2022/12/07 05:11:00;;;;;;;;;26.75;26.25;;;;;5.97;60.98;101444.44;5075998;27;45474;-45
2022/12/07 05:13:26;;;;;;;;;31.75;26.50;;;;;5.99;60.57;101440.97;5075300;28;45437;-44
2022/12/07 05:15:51;;;;;;;;;33.25;28.50;;;;;6.01;60.72;101441.81;5080078;28;45342;-45
2022/12/07 05:18:16;;;;;;;;;38.25;26.50;;;;;6.02;60.76;101442.69;5085956;27;67150;-45
2022/12/07 05:20:42;;;;;;;;;34.50;26.00;;;;;6.00;60.53;101441.81;5079455;27;45506;-43
2022/12/07 05:23:08;;;;;;;;;41.00;27.75;;;;;6.00;60.64;101442.72;5076844;27;46518;-45
2022/12/07 05:25:34;;;;;;;;;31.75;26.00;;;;;6.00;60.42;101440.09;5071959;28;45344;-45
2022/12/07 05:27:59;;;;;;;;;38.75;26.50;;;;;6.00;60.63;101453.09;5069764;28;45539;-45
2022/12/07 05:30:25;;;;;;;;;31.25;26.50;;;;;6.01;60.50;101451.38;5068155;27;57638;-45
2022/12/07 05:32:51;;;;;;;;;34.75;26.50;;;;;5.99;60.57;101446.16;5066617;27;45517;-48
2022/12/07 05:35:17;;;;;;;;;28.50;26.00;;;;;6.00;60.64;101447.00;5073913;27;45210;-49
2022/12/07 05:37:42;;;;;;;;;34.00;25.25;;;;;6.02;60.69;101445.28;5069874;28;47079;-48
2022/12/07 05:40:08;;;;;;;;;29.25;25.25;;;;;6.06;60.60;101449.66;5070654;28;48434;-49
2022/12/07 05:42:34;;;;;;;;;31.50;26.75;;;;;6.06;60.45;101441.84;5074667;28;45377;-48
2022/12/07 05:44:59;;;;;;;;;40.75;28.00;;;;;6.07;60.44;101449.66;5070005;27;57693;-48
2022/12/07 05:47:24;;;;;;;;;32.25;22.50;;;;;6.07;60.61;101443.56;5080089;27;57420;-47
2022/12/07 05:49:50;;;;;;;;;32.25;27.50;;;;;6.10;60.72;101447.94;5070492;27;62629;-47
2022/12/07 05:52:15;;;;;;;;;34.25;25.25;;;;;6.12;60.80;101452.25;5079886;28;45468;-45
2022/12/07 05:54:41;;;;;;;;;36.00;26.50;;;;;6.10;60.84;101443.59;5070325;27;59420;-50
2022/12/07 05:57:06;;;;;;;;;33.25;21.75;;;;;6.10;60.76;101442.72;5075393;28;62827;-45
2022/12/07 05:59:31;;;;;;;;;29.00;27.00;;;;;6.11;60.69;101440.13;5082200;27;59181;-46
2022/12/07 06:01:59;;;;;;;;;31.25;25.75;;;;;6.12;60.80;101438.41;5074290;28;45529;-45
2022/12/07 06:04:27;;;;;;;;;33.25;22.50;;;;;6.15;60.73;101435.81;5070603;28;45224;-44
2022/12/07 06:06:53;;;;;;;;;33.50;24.75;;;;;6.15;60.67;101433.22;5066924;27;45201;-47
2022/12/07 06:09:20;;;;;;;;;33.00;25.50;;;;;6.18;60.80;101438.41;5078299;27;45264;-47
2022/12/07 06:14:29;;;;;;;;;31.75;23.50;;;;;6.22;60.69;101429.78;5067390;28;45323;-45
2022/12/07 06:16:55;;;;;;;;;30.25;25.00;;;;;6.26;60.65;101436.69;5083147;27;71686;-47
2022/12/07 06:19:20;;;;;;;;;34.25;25.50;;;;;6.26;60.96;101431.50;5073527;28;45269;-48
2022/12/07 06:21:45;;;;;;;;;26.75;23.50;;;;;6.30;60.70;101432.38;5059747;28;52440;-49
2022/12/07 06:24:11;;;;;;;;;35.00;23.75;;;;;6.32;60.82;101439.31;5059978;28;59381;-45
2022/12/07 06:26:37;;;;;;;;;25.25;21.75;;;;;6.34;60.79;101440.19;5069369;28;45466;-44
2022/12/07 06:29:02;;;;;;;;;29.25;24.00;;;;;6.36;60.82;101437.59;5071846;28;45320;-44
2022/12/07 06:31:28;;;;;;;;;29.50;23.25;;;;;6.37;60.78;101439.31;5074342;28;45326;-47
2022/12/07 06:34:00;;;;;;;;;29.75;22.75;;;;;6.38;60.89;101436.72;5075500;27;47072;-48
2022/12/07 06:36:26;;;;;;;;;28.00;20.25;;;;;6.39;60.76;101429.78;5073083;28;46906;-46
2022/12/07 06:38:51;;;;;;;;;37.50;29.75;;;;;6.43;60.72;101440.19;5066094;28;45326;-46
2022/12/07 06:41:17;;;;;;;;;33.00;26.75;;;;;6.46;60.65;101440.22;5070137;27;45528;-44
2022/12/07 06:43:42;;;;;;;;;32.25;21.00;;;;;6.49;60.64;101441.06;5075568;27;45524;-44
2022/12/07 06:46:08;;;;;;;;;34.75;23.75;;;;;6.49;60.47;101434.13;5069853;27;45445;-48
2022/12/07 06:48:33;;;;;;;;;29.50;21.75;;;;;6.49;60.51;101441.94;5069407;27;45245;-46
2022/12/07 06:50:59;;;;;;;;;28.00;21.75;;;;;6.48;60.49;101445.41;5071742;28;45878;-45
2022/12/07 06:53:24;;;;;;;;;34.00;20.25;;;;;6.44;60.37;101439.31;5069249;28;45528;-45
2022/12/07 06:55:49;;;;;;;;;28.00;26.50;;;;;6.46;60.59;101441.91;5071780;28;46357;-45
2022/12/07 06:58:15;;;;;;;;;27.50;24.00;;;;;6.47;60.51;101438.47;5070750;27;60024;-44
2022/12/07 07:00:40;;;;;;;;;27.25;21.25;;;;;6.51;60.53;101441.94;5068655;27;45407;-44
2022/12/07 07:03:06;;;;;;;;;32.25;24.00;;;;;6.53;60.40;101440.19;5065570;28;45454;-45
2022/12/07 07:05:31;;;;;;;;;28.50;21.00;;;;;6.53;60.43;101440.19;5079207;27;65372;-44
2022/12/07 07:07:56;;;;;;;;;25.50;21.00;;;;;6.54;60.61;101442.81;5075979;27;52854;-44
2022/12/07 07:10:22;;;;;;;;;28.50;20.00;;;;;6.56;60.50;101441.06;5083241;27;54188;-44
2022/12/07 07:12:47;;;;;;;;;28.50;21.00;;;;;6.59;60.48;101440.22;5077009;27;63096;-46
2022/12/07 07:15:12;;;;;;;;;27.50;22.00;;;;;6.61;60.33;101443.69;5075858;28;62793;-46
2022/12/07 07:17:38;;;;;;;;;28.00;20.75;;;;;6.62;60.43;101440.19;5073392;27;46696;-44
2022/12/07 07:20:04;;;;;;;;;32.75;21.25;;;;;6.63;60.39;101440.22;5070309;27;45216;-45
2022/12/07 07:22:29;;;;;;;;;28.00;21.75;;;;;6.65;60.46;101440.22;5076394;28;45719;-48
2022/12/07 07:24:55;;;;;;;;;35.75;20.50;;;;;6.69;60.44;101436.75;5064442;27;64466;-46
2022/12/07 07:27:20;;;;;;;;;29.50;21.50;;;;;6.74;60.40;101445.41;5067112;27;45407;-47
2022/12/07 07:29:45;;;;;;;;;23.50;21.00;;;;;6.76;60.50;101446.28;5083153;27;59663;-45
2022/12/07 07:32:12;;;;;;;;;33.00;22.75;;;;;6.79;60.38;101440.22;5076764;27;59310;-47
2022/12/07 07:34:37;;;;;;;;;26.75;21.50;;;;;6.79;60.32;101451.50;5067821;28;45428;-47
2022/12/07 07:37:02;;;;;;;;;27.00;21.50;;;;;6.79;60.28;101454.09;5074473;27;62951;-47
2022/12/07 07:39:28;;;;;;;;;28.75;25.75;;;;;6.78;60.37;101441.97;5071529;27;45326;-45
2022/12/07 07:41:53;;;;;;;;;27.50;17.50;;;;;6.78;60.33;101444.56;5070427;27;49631;-46
2022/12/07 07:44:18;;;;;;;;;28.50;23.25;;;;;6.79;60.34;101446.28;5064876;27;49264;-44
2022/12/07 07:46:44;;;;;;;;;23.75;18.50;;;;;6.81;60.41;101446.28;5074005;27;57978;-44
2022/12/07 07:49:10;;;;;;;;;33.00;21.75;;;;;6.82;60.45;101437.63;5070827;28;45421;-45
2022/12/07 07:51:36;;;;;;;;;23.75;21.00;;;;;6.83;60.18;101440.22;5068381;27;46425;-44
2022/12/07 07:54:01;;;;;;;;;23.50;18.75;;;;;6.83;60.33;101441.94;5072232;27;45469;-44
2022/12/07 07:56:26;;;;;;;;;30.00;24.25;;;;;6.85;60.29;101440.22;5070526;27;45449;-44
2022/12/07 07:58:52;;;;;;;;;21.25;15.50;;;;;6.88;60.35;101444.56;5064392;27;54132;-45
2022/12/07 08:01:19;;;;;;;;;29.75;23.75;;;;;6.89;60.64;101443.69;5076009;27;45386;-43
2022/12/07 08:03:45;;;;;;;;;21.75;15.75;;;;;6.89;60.41;101449.78;5085953;27;46224;-45
2022/12/07 08:06:10;;;;;;;;;31.50;23.25;;;;;6.95;60.09;101454.09;5066871;27;45600;-45
2022/12/07 08:08:36;;;;;;;;;24.50;20.25;;;;;6.95;60.12;101454.09;5069776;28;55632;-46
2022/12/07 08:11:05;;;;;;;;;35.75;22.75;;;;;6.96;60.12;101456.69;5070411;27;62617;-46
2022/12/07 08:13:30;;;;;;;;;30.00;23.25;;;;;6.95;60.14;101454.94;5080949;27;45402;-45
2022/12/07 08:15:55;;;;;;;;;26.00;22.75;;;;;6.95;60.08;101454.09;5079998;27;45299;-44
2022/12/07 08:18:21;;;;;;;;;30.25;23.25;;;;;6.93;59.73;101458.44;5068613;27;45260;-44
2022/12/07 08:20:46;;;;;;;;;29.00;22.50;;;;;6.94;60.01;101461.03;5065658;27;62527;-45
2022/12/07 08:23:12;;;;;;;;;30.25;22.25;;;;;6.94;60.03;101466.25;5086280;27;47508;-43
2022/12/07 08:25:38;;;;;;;;;22.50;19.50;;;;;6.97;60.12;101463.63;5074426;28;45261;-46
2022/12/07 08:28:03;;;;;;;;;28.25;23.00;;;;;7.00;59.95;101465.38;5077462;28;45373;-45
2022/12/07 08:30:30;;;;;;;;;31.00;19.00;;;;;6.98;59.99;101469.72;5063314;28;45439;-45
2022/12/07 08:32:55;;;;;;;;;30.00;23.75;;;;;6.99;59.81;101477.53;5076341;27;46096;-44
2022/12/07 08:35:21;;;;;;;;;29.75;23.00;;;;;6.98;59.76;101472.31;5071961;27;45520;-43
2022/12/07 08:37:46;;;;;;;;;25.50;19.50;;;;;6.97;59.89;101473.16;5071467;27;45364;-46
2022/12/07 08:40:15;;;;;;;;;30.00;25.50;;;;;6.95;59.79;101462.75;5072602;27;45315;-44
2022/12/07 08:42:41;;;;;;;;;33.50;24.25;;;;;6.96;59.76;101466.25;5076218;27;46206;-45
2022/12/07 08:45:09;;;;;;;;;21.75;17.00;;;;;6.98;59.87;101475.78;5074062;27;45395;-46
2022/12/07 08:47:42;;;;;;;;;25.75;17.00;;;;;6.99;59.79;101480.13;5076502;27;45284;-45
2022/12/07 08:50:08;;;;;;;;;25.50;22.50;;;;;7.00;59.81;101481.00;5074974;27;45231;-42
2022/12/07 08:52:35;;;;;;;;;25.00;15.75;;;;;6.99;59.87;101481.84;5078073;27;45226;-42
2022/12/07 08:55:02;;;;;;;;;21.75;18.00;;;;;6.96;59.70;101474.91;5081610;27;45391;-42
2022/12/07 08:57:28;;;;;;;;;30.00;24.00;;;;;6.98;59.80;101482.72;5074913;27;45789;-41
2022/12/07 08:59:53;;;;;;;;;31.00;22.00;;;;;6.97;59.80;101479.22;5073223;27;62198;-42
2022/12/07 09:02:19;;;;;;;;;29.75;23.00;;;;;6.98;59.83;101475.78;5071190;27;46391;-43
2022/12/07 09:04:44;;;;;;;;;28.75;25.00;;;;;6.99;59.72;101472.31;5078170;27;45493;-43
2022/12/07 09:07:10;;;;;;;;;40.75;25.50;;;;;7.00;59.76;101476.63;5071813;27;56619;-42
2022/12/07 09:09:35;;;;;;;;;34.50;25.25;;;;;7.02;59.69;101468.84;5076784;27;45251;-42
2022/12/07 09:12:01;;;;;;;;;27.25;24.50;;;;;7.03;59.67;101471.44;5073793;27;45232;-41
2022/12/07 09:14:26;;;;;;;;;37.50;25.50;;;;;7.06;59.56;101467.09;5073550;27;45425;-41
2022/12/07 09:16:52;;;;;;;;;31.50;27.50;;;;;7.06;59.57;101473.16;5081751;27;45582;-42
2022/12/07 09:19:17;;;;;;;;;32.75;27.25;;;;;7.08;59.71;101478.38;5068033;27;54246;-43
2022/12/07 09:21:42;;;;;;;;;27.75;26.00;;;;;7.09;59.77;101483.59;5074707;27;46136;-41
2022/12/07 09:24:09;;;;;;;;;30.75;25.75;;;;;7.09;59.70;101477.53;5073643;27;45375;-44
2022/12/07 09:26:35;;;;;;;;;38.50;30.75;;;;;7.07;59.84;101476.66;5070338;27;45509;-43
2022/12/07 09:29:00;;;;;;;;;32.25;26.25;;;;;7.06;59.70;101475.75;5076927;27;45375;-41
2022/12/07 09:31:26;;;;;;;;;34.00;28.50;;;;;7.08;59.83;101481.84;5059439;28;46533;-41
2022/12/07 09:33:59;;;;;;;;;23.00;16.25;;;;;7.11;59.81;101474.03;5079010;27;45437;-42
2022/12/07 09:36:26;;;;;;;;;33.00;24.75;;;;;7.16;59.97;101477.50;5063736;27;45357;-40
2022/12/07 09:38:52;;;;;;;;;31.75;23.25;;;;;7.22;60.03;101474.91;5071810;27;45369;-40
2022/12/07 09:41:17;;;;;;;;;31.75;26.75;;;;;7.28;60.06;101474.03;5089433;27;65562;-41
2022/12/07 09:43:43;;;;;;;;;32.25;28.00;;;;;7.33;60.12;101471.41;5094026;27;45451;-40
2022/12/07 09:46:15;;;;;;;;;32.75;27.00;;;;;7.41;60.25;101480.06;5070619;27;49209;-40
2022/12/07 09:48:42;;;;;;;;;40.50;30.75;;;;;7.47;60.15;101473.97;5079494;27;45358;-40
2022/12/07 09:51:25;;;;;;;;;32.75;27.75;;;;;7.52;59.98;101470.47;5078397;27;47172;-42
2022/12/07 09:53:56;;;;;;;;;32.75;24.50;;;;;7.54;59.94;101466.16;5076139;27;60222;-41
2022/12/07 09:56:22;;;;;;;;;25.00;21.25;;;;;7.56;60.05;101468.75;5068991;27;45395;-41
2022/12/07 09:58:48;;;;;;;;;32.50;25.00;;;;;7.56;60.08;101458.31;5075730;27;47224;-43
2022/12/07 10:01:17;;;;;;;;;28.25;24.00;;;;;7.58;60.23;101462.66;5078033;27;46183;-41
2022/12/07 10:03:50;;;;;;;;;31.75;24.25;;;;;7.62;60.22;101457.47;5074921;27;45448;-42
2022/12/07 10:06:15;;;;;;;;;27.50;23.50;;;;;7.65;60.16;101457.44;5074716;27;45518;-43
2022/12/07 10:08:43;;;;;;;;;29.00;26.75;;;;;7.66;60.28;101454.81;5068346;27;45410;-43
2022/12/07 10:11:10;;;;;;;;;38.00;28.25;;;;;7.71;60.22;101460.03;5075608;27;46190;-40
2022/12/07 10:13:42;;;;;;;;;37.25;24.75;;;;;7.74;60.20;101460.03;5067650;27;45481;-43
2022/12/07 10:16:39;;;;;;;;;44.25;28.25;;;;;7.77;60.28;101467.81;5078235;27;45366;-41
2022/12/07 10:19:18;;;;;;;;;40.00;29.00;;;;;7.82;60.14;101455.63;5070928;28;45415;-43
2022/12/07 10:22:09;;;;;;;;;30.75;25.75;;;;;7.86;59.97;101451.28;5071880;27;46777;-41
2022/12/07 10:24:37;;;;;;;;;31.25;27.00;;;;;7.90;60.07;101453.88;5075289;27;45385;-42
2022/12/07 10:27:02;;;;;;;;;25.75;20.00;;;;;7.95;59.93;101446.00;5071414;27;45444;-43
2022/12/07 10:29:31;;;;;;;;;37.50;32.00;;;;;8.00;59.89;101449.47;5052304;28;47403;-41
2022/12/07 10:32:02;;;;;;;;;34.50;30.50;;;;;8.03;60.09;101440.78;5085355;27;45887;-42
2022/12/07 10:34:30;;;;;;;;;34.75;28.00;;;;;8.06;59.81;101443.38;5074576;27;46210;-42
2022/12/07 10:37:08;;;;;;;;;35.75;25.25;;;;;8.07;59.55;101437.28;5085385;27;45462;-41
2022/12/07 10:39:46;;;;;;;;;33.00;25.75;;;;;8.08;59.57;101431.19;5074539;28;45622;-41
2022/12/07 10:42:21;;;;;;;;;37.50;30.25;;;;;8.10;59.51;101432.91;5070742;27;46301;-42
2022/12/07 10:44:48;;;;;;;;;38.00;29.50;;;;;8.11;59.68;101425.94;5080934;27;45813;-42
2022/12/07 10:47:25;;;;;;;;;39.75;30.25;;;;;8.15;59.61;101425.94;5088491;27;45494;-41
2022/12/07 10:50:08;;;;;;;;;29.25;23.25;;;;;8.16;59.34;101421.56;5075681;28;45487;-42
2022/12/07 10:53:01;;;;;;;;;37.75;26.75;;;;;8.21;59.51;101414.59;5074528;27;46568;-42
2022/12/07 10:55:27;;;;;;;;;35.25;26.00;;;;;8.26;59.40;101405.00;5074184;27;45309;-41
2022/12/07 10:58:11;;;;;;;;;35.25;27.75;;;;;8.29;59.39;101398.91;5075920;27;45467;-42
2022/12/07 11:00:51;;;;;;;;;48.25;31.75;;;;;8.31;59.27;101394.56;5070173;27;45236;-41
2022/12/07 11:03:39;;;;;;;;;48.75;34.00;;;;;8.32;59.24;101397.16;5071998;27;45688;-41
2022/12/07 11:06:20;;;;;;;;;37.50;33.25;;;;;8.32;59.09;101396.28;5060079;28;45972;-42
2022/12/07 11:08:48;;;;;;;;;35.00;28.25;;;;;8.32;59.30;101389.34;5077429;27;45346;-40
2022/12/07 11:11:26;;;;;;;;;38.25;28.75;;;;;8.34;59.24;101381.50;5093288;27;46092;-40
2022/12/07 11:14:19;;;;;;;;;42.25;33.75;;;;;8.33;59.14;101379.75;5070937;27;45285;-41
2022/12/07 11:17:14;;;;;;;;;53.25;34.50;;;;;8.34;59.21;101374.53;5073909;28;45393;-40
2022/12/07 11:19:59;;;;;;;;;43.75;34.25;;;;;8.38;59.12;101374.53;5069248;28;45287;-41
2022/12/07 11:22:43;;;;;;;;;39.75;33.00;;;;;8.41;59.23;101367.53;5073930;27;45730;-40
2022/12/07 11:25:15;;;;;;;;;36.00;31.50;;;;;8.44;58.99;101359.69;5088535;27;45429;-41
2022/12/07 11:27:45;;;;;;;;;48.75;36.25;;;;;8.45;59.24;101364.06;5074024;27;45312;-41
2022/12/07 11:30:22;;;;;;;;;33.75;29.25;;;;;8.46;59.01;101365.75;5067487;28;45521;-40